Time;durP1;ratioP1;P1;durP2;ratioP2;P2;SDS_P1;SDS_P2;PMS_P1;PMS_P2;Temp;Humidity;BMP_temperature;BMP_pressure;BME280_temperature;BME280_humidity;BME280_pressure;Samples;Min_cycle;Max_cycle;Signal;HPM_P1;HPM_P2
2020/12/26 00:00:30;;;;;;;;;;;;;;;8.81;60.23;102651.44;4856454;29;19950;-91
2020/12/26 00:02:55;;;;;;;;;;;;;;;8.70;61.24;102654.25;4859333;29;19920;-91
2020/12/26 00:05:23;;;;;;;;;;;;;;;8.02;63.76;102659.31;4844799;29;19920;-89
2020/12/26 00:07:53;;;;;;;;;;;;;;;8.51;62.52;102651.75;4840162;29;19916;-89
2020/12/26 00:10:21;;;;;;;;;;;;;;;9.04;60.55;102637.66;4840053;29;20007;-89
2020/12/26 00:12:49;;;;;;;;;;;;;;;9.28;60.11;102632.84;4839688;29;19917;-89
2020/12/26 00:15:15;;;;;;;;;;;;;;;9.29;59.72;102626.56;4839239;29;20067;-90
2020/12/26 00:17:47;;;;;;;;;;;;;;;10.07;58.06;102614.53;4840591;29;19984;-89
2020/12/26 00:20:12;;;;;;;;;;;;;;;10.23;57.13;102607.03;4839665;29;19917;-89
2020/12/26 00:22:38;;;;;;;;;;;;;;;10.45;56.85;102610.28;4839713;29;19924;-90
2020/12/26 00:25:03;;;;;;;;;;;;;;;10.50;56.31;102609.31;4839164;29;19917;-89
2020/12/26 00:27:29;;;;;;;;;;;;;;;10.84;55.50;102617.66;4854944;29;20416;-88
2020/12/26 00:29:55;;;;;;;;;;;;;;;10.45;57.17;102612.97;4839647;29;19921;-89
2020/12/26 00:32:21;;;;;;;;;;;;;;;10.14;58.16;102611.72;4854657;29;19916;-90
2020/12/26 00:34:46;;;;;;;;;;;;;;;10.04;57.96;102619.09;4869765;29;19916;-91
2020/12/26 00:37:16;;;;;;;;;;;;;;;10.38;57.66;102611.31;4870195;29;19924;-90
2020/12/26 00:39:42;;;;;;;;;;;;;;;10.67;56.03;102608.97;4870253;29;19916;-90
2020/12/26 00:42:09;;;;;;;;;;;;;;;10.33;57.43;102610.50;4854664;29;19923;-91
2020/12/26 00:44:35;;;;;;;;;;;;;;;10.53;56.68;102612.84;4853826;29;19920;-90
2020/12/26 00:47:00;;;;;;;;;;;;;;;9.92;58.26;102623.78;4853615;29;19920;-89
2020/12/26 00:49:25;;;;;;;;;;;;;;;9.83;59.77;102613.13;4869099;29;19916;-89
2020/12/26 00:51:51;;;;;;;;;;;;;;;9.82;59.00;102616.75;4868682;29;19925;-90
2020/12/26 00:54:18;;;;;;;;;;;;;;;10.10;58.23;102619.88;4853422;29;19924;-88
2020/12/26 00:56:43;;;;;;;;;;;;;;;10.09;58.04;102609.09;4856390;29;19916;-88
2020/12/26 00:59:09;;;;;;;;;;;;;;;10.44;57.18;102616.59;4857751;29;19923;-90
2020/12/26 01:01:34;;;;;;;;;;;;;;;10.40;56.99;102603.16;4854424;29;19963;-89
2020/12/26 01:03:59;;;;;;;;;;;;;;;10.05;58.27;102599.25;4853156;29;19920;-90
2020/12/26 01:06:24;;;;;;;;;;;;;;;9.81;58.92;102592.44;4852645;29;19943;-87
2020/12/26 01:08:52;;;;;;;;;;;;;;;9.40;59.70;102597.56;4852956;29;19924;-91
2020/12/26 01:11:17;;;;;;;;;;;;;;;9.98;58.18;102597.56;4853794;29;20378;-87
2020/12/26 01:13:43;;;;;;;;;;;;;;;9.79;58.99;102600.56;4852978;29;19924;-88
2020/12/26 01:16:20;;;;;;;;;;;;;;;9.93;58.01;102597.63;4853212;29;20339;-88
2020/12/26 01:18:46;;;;;;;;;;;;;;;9.55;59.10;102602.72;4852988;29;19932;-87
2020/12/26 01:21:18;;;;;;;;;;;;;;;9.33;60.02;102598.56;4852869;29;19943;-90
2020/12/26 01:23:44;;;;;;;;;;;;;;;8.96;60.71;102596.38;4851430;29;19921;-88
2020/12/26 01:26:14;;;;;;;;;;;;;;;9.09;60.09;102597.09;4835465;29;19916;-88
2020/12/26 01:28:39;;;;;;;;;;;;;;;9.58;58.99;102585.59;4851461;29;19999;-89
2020/12/26 01:31:05;;;;;;;;;;;;;;;9.17;59.62;102590.69;4835859;29;19966;-91
2020/12/26 01:33:34;;;;;;;;;;;;;;;8.77;60.65;102585.81;4834960;29;19916;-89
2020/12/26 01:35:59;;;;;;;;;;;;;;;9.57;58.74;102587.41;4854923;29;19976;-89
2020/12/26 01:38:24;;;;;;;;;;;;;;;9.22;58.79;102578.03;4859282;29;20387;-90
2020/12/26 01:40:50;;;;;;;;;;;;;;;8.89;59.51;102573.06;4854915;29;20470;-88
2020/12/26 01:43:18;;;;;;;;;;;;;;;8.84;59.29;102574.00;4835472;29;19945;-89
2020/12/26 01:45:44;;;;;;;;;;;;;;;9.51;57.37;102574.00;4836189;29;19948;-89
2020/12/26 01:48:13;;;;;;;;;;;;;;;9.51;58.02;102570.38;4836088;29;19916;-90
2020/12/26 01:50:39;;;;;;;;;;;;;;;9.31;57.83;102568.00;4836187;29;20356;-87
2020/12/26 01:53:04;;;;;;;;;;;;;;;9.19;57.78;102575.38;4835274;29;20119;-89
2020/12/26 01:55:30;;;;;;;;;;;;;;;8.99;58.24;102577.44;4835329;29;20012;-88
2020/12/26 01:57:55;;;;;;;;;;;;;;;9.08;57.77;102571.91;4835569;29;19989;-91
2020/12/26 02:00:21;;;;;;;;;;;;;;;8.97;57.66;102574.75;4835726;29;19916;-90
2020/12/26 02:02:46;;;;;;;;;;;;;;;8.82;57.47;102562.34;4835590;29;19916;-89
2020/12/26 02:05:12;;;;;;;;;;;;;;;9.57;55.80;102565.78;4835447;29;19923;-89
2020/12/26 02:07:37;;;;;;;;;;;;;;;9.31;56.70;102562.59;4835028;29;20409;-88
2020/12/26 02:10:02;;;;;;;;;;;;;;;9.50;56.06;102565.91;4835406;29;19924;-89
2020/12/26 02:12:29;;;;;;;;;;;;;;;9.12;57.11;102570.03;4835668;29;19951;-89
2020/12/26 02:14:54;;;;;;;;;;;;;;;9.18;56.52;102568.16;4835586;29;19917;-91
2020/12/26 02:17:28;;;;;;;;;;;;;;;9.08;56.11;102566.50;4835174;29;19923;-89
2020/12/26 02:19:53;;;;;;;;;;;;;;;8.93;56.84;102564.91;4835421;29;19917;-91
2020/12/26 02:22:19;;;;;;;;;;;;;;;8.92;55.61;102555.00;4835251;29;19931;-89
2020/12/26 02:24:44;;;;;;;;;;;;;;;8.92;56.77;102552.31;4820076;29;20390;-89
2020/12/26 02:27:09;;;;;;;;;;;;;;;9.33;55.27;102548.16;4835378;29;19916;-90
2020/12/26 02:29:35;;;;;;;;;;;;;;;9.30;54.68;102539.19;4834914;29;19927;-88
2020/12/26 02:32:01;;;;;;;;;;;;;;;9.42;54.40;102527.31;4835500;29;19952;-91
2020/12/26 02:34:27;;;;;;;;;;;;;;;9.31;55.03;102522.06;4820313;29;19920;-91
2020/12/26 02:36:52;;;;;;;;;;;;;;;9.49;55.04;102510.97;4835148;29;19941;-89
2020/12/26 02:39:18;;;;;;;;;;;;;;;8.99;55.44;102502.72;4835258;29;19967;-90
2020/12/26 02:41:43;;;;;;;;;;;;;;;9.26;55.30;102500.53;4836608;29;19913;-92
2020/12/26 02:44:08;;;;;;;;;;;;;;;9.57;54.56;102503.66;4821370;29;19920;-90
2020/12/26 02:46:34;;;;;;;;;;;;;;;9.76;54.22;102490.69;4836959;29;19920;-91
2020/12/26 02:48:59;;;;;;;;;;;;;;;9.35;55.35;102483.31;4836724;29;19957;-88
2020/12/26 02:51:25;;;;;;;;;;;;;;;8.87;56.91;102479.50;4838728;29;19950;-88
2020/12/26 02:53:50;;;;;;;;;;;;;;;8.94;55.99;102474.03;4842339;29;19916;-89
2020/12/26 02:56:17;;;;;;;;;;;;;;;8.84;56.77;102462.47;4824471;29;19928;-89
2020/12/26 02:58:42;;;;;;;;;;;;;;;8.84;56.61;102457.97;4836646;29;19924;-90
2020/12/26 03:01:10;;;;;;;;;;;;;;;8.44;57.16;102452.22;4836688;29;19938;-91
2020/12/26 03:03:35;;;;;;;;;;;;;;;8.49;58.05;102435.06;4835522;29;19938;-90
2020/12/26 03:06:01;;;;;;;;;;;;;;;8.31;58.07;102432.59;4835367;29;19913;-90
2020/12/26 03:08:29;;;;;;;;;;;;;;;8.49;57.42;102424.28;4835539;29;20279;-89
2020/12/26 03:10:54;;;;;;;;;;;;;;;8.76;58.09;102426.63;4835517;29;19980;-90
2020/12/26 03:13:20;;;;;;;;;;;;;;;8.72;56.93;102420.38;4835564;29;20375;-90
2020/12/26 03:15:46;;;;;;;;;;;;;;;8.54;57.97;102426.91;4851632;29;20385;-91
2020/12/26 03:18:11;;;;;;;;;;;;;;;8.35;58.95;102437.03;4822366;29;19920;-90
2020/12/26 03:20:37;;;;;;;;;;;;;;;8.64;57.74;102422.28;4839365;29;19913;-91
2020/12/26 03:23:02;;;;;;;;;;;;;;;8.93;56.76;102434.47;4839722;29;19920;-90
2020/12/26 03:25:28;;;;;;;;;;;;;;;8.90;56.64;102438.09;4840030;29;19917;-89
2020/12/26 03:27:55;;;;;;;;;;;;;;;9.09;57.12;102436.00;4824827;29;20321;-91
2020/12/26 03:30:20;;;;;;;;;;;;;;;9.09;56.83;102435.09;4839519;29;19917;-89
2020/12/26 03:32:45;;;;;;;;;;;;;;;8.66;57.79;102437.53;4839551;29;19920;-89
2020/12/26 03:35:13;;;;;;;;;;;;;;;9.34;56.37;102427.50;4824627;29;20379;-91
2020/12/26 03:37:40;;;;;;;;;;;;;;;8.59;58.63;102434.94;4839591;29;19916;-89
2020/12/26 03:40:15;;;;;;;;;;;;;;;8.97;57.38;102436.22;4839475;29;19920;-90
2020/12/26 03:42:42;;;;;;;;;;;;;;;9.12;57.04;102440.44;4856622;29;19916;-89
2020/12/26 03:45:11;;;;;;;;;;;;;;;9.31;56.04;102433.84;4856103;29;20018;-90
2020/12/26 03:47:38;;;;;;;;;;;;;;;9.23;56.40;102428.56;4839889;29;19920;-88
2020/12/26 03:50:04;;;;;;;;;;;;;;;9.63;55.88;102426.09;4839747;29;19924;-89
2020/12/26 03:52:32;;;;;;;;;;;;;;;8.78;57.62;102431.06;4840014;29;19920;-89
2020/12/26 03:55:00;;;;;;;;;;;;;;;8.76;58.05;102422.09;4839667;29;20426;-90
2020/12/26 03:57:27;;;;;;;;;;;;;;;8.98;57.79;102427.16;4856093;29;19947;-88
2020/12/26 03:59:52;;;;;;;;;;;;;;;9.39;56.81;102409.38;4839633;29;19917;-91
2020/12/26 04:02:20;;;;;;;;;;;;;;;9.17;57.36;102416.97;4824299;29;19928;-89
2020/12/26 04:04:53;;;;;;;;;;;;;;;9.78;55.77;102406.88;4839576;29;19927;-89
2020/12/26 04:07:21;;;;;;;;;;;;;;;9.09;57.77;102427.91;4840076;29;19920;-89
2020/12/26 04:09:49;;;;;;;;;;;;;;;9.13;57.87;102424.22;4839942;29;19916;-90
2020/12/26 04:12:15;;;;;;;;;;;;;;;8.98;58.32;102422.69;4839621;29;19917;-91
2020/12/26 04:14:58;;;;;;;;;;;;;;;8.62;58.67;102414.22;4825148;29;19920;-90
2020/12/26 04:17:26;;;;;;;;;;;;;;;8.77;58.78;102407.72;4840028;29;19916;-90
2020/12/26 04:19:51;;;;;;;;;;;;;;;8.80;58.90;102399.56;4839475;29;19916;-90
2020/12/26 04:22:19;;;;;;;;;;;;;;;9.07;58.46;102391.03;4839647;29;19923;-90
2020/12/26 04:24:52;;;;;;;;;;;;;;;9.02;58.74;102391.13;4839068;29;19921;-89
2020/12/26 04:27:17;;;;;;;;;;;;;;;9.07;58.16;102388.34;4839434;29;20011;-90
2020/12/26 04:29:44;;;;;;;;;;;;;;;9.28;57.74;102392.50;4855143;29;19946;-90
2020/12/26 04:32:14;;;;;;;;;;;;;;;9.40;57.57;102390.47;4838687;29;19916;-88
2020/12/26 04:34:45;;;;;;;;;;;;;;;9.68;57.41;102386.38;4839240;29;19916;-88
2020/12/26 04:37:10;;;;;;;;;;;;;;;9.25;58.23;102381.75;4839198;29;20407;-91
2020/12/26 04:39:43;;;;;;;;;;;;;;;9.26;58.79;102381.72;4839059;29;19916;-89
2020/12/26 04:42:12;;;;;;;;;;;;;;;9.27;58.90;102375.41;4839189;29;19987;-89
2020/12/26 04:44:42;;;;;;;;;;;;;;;8.63;60.37;102380.91;4839667;29;19917;-88
2020/12/26 04:47:12;;;;;;;;;;;;;;;9.11;58.94;102358.56;4839475;29;19940;-88
2020/12/26 04:49:40;;;;;;;;;;;;;;;9.31;58.19;102360.03;4843636;29;19999;-89
2020/12/26 04:52:08;;;;;;;;;;;;;;;9.57;57.80;102348.72;4842940;29;19920;-88
2020/12/26 04:54:40;;;;;;;;;;;;;;;9.61;57.44;102345.06;4840241;29;19952;-89
2020/12/26 04:57:06;;;;;;;;;;;;;;;8.68;59.38;102353.84;4838828;29;19923;-90
2020/12/26 04:59:34;;;;;;;;;;;;;;;9.00;59.85;102349.78;4838850;29;19971;-88
2020/12/26 05:02:00;;;;;;;;;;;;;;;9.08;59.29;102336.16;4838840;29;19924;-91
2020/12/26 05:04:26;;;;;;;;;;;;;;;9.08;58.92;102338.84;4856033;29;19916;-90
2020/12/26 05:06:52;;;;;;;;;;;;;;;9.10;59.49;102345.97;4837988;29;19927;-89
2020/12/26 05:09:18;;;;;;;;;;;;;;;9.63;57.40;102339.63;4837399;29;19987;-88
2020/12/26 05:11:50;;;;;;;;;;;;;;;9.68;57.35;102346.72;4839618;29;19939;-87
2020/12/26 05:14:17;;;;;;;;;;;;;;;9.70;57.79;102346.69;4841899;29;19920;-87
2020/12/26 05:16:42;;;;;;;;;;;;;;;9.23;59.12;102339.44;4842496;29;19923;-88
2020/12/26 05:19:08;;;;;;;;;;;;;;;9.81;57.63;102325.72;4841775;29;19917;-87
2020/12/26 05:21:37;;;;;;;;;;;;;;;9.38;59.07;102327.47;4838147;29;19912;-90
2020/12/26 05:24:06;;;;;;;;;;;;;;;9.26;59.12;102337.63;4837634;29;19923;-89
2020/12/26 05:26:41;;;;;;;;;;;;;;;9.60;58.33;102336.97;4837731;29;19971;-89
2020/12/26 05:29:06;;;;;;;;;;;;;;;9.62;58.68;102343.22;4837227;29;19980;-88
2020/12/26 05:31:45;;;;;;;;;;;;;;;9.29;59.38;102334.88;4837299;29;19916;-89
2020/12/26 05:34:10;;;;;;;;;;;;;;;9.30;58.66;102328.53;4837040;29;19920;-88
2020/12/26 05:36:36;;;;;;;;;;;;;;;9.53;58.85;102323.59;4836898;29;19917;-88
2020/12/26 05:39:01;;;;;;;;;;;;;;;9.96;57.47;102321.81;4837478;29;20390;-89
2020/12/26 05:41:28;;;;;;;;;;;;;;;8.91;60.83;102331.94;4853363;29;20363;-90
2020/12/26 05:43:54;;;;;;;;;;;;;;;9.23;59.40;102333.16;4853284;29;19916;-88
2020/12/26 05:46:19;;;;;;;;;;;;;;;9.37;59.81;102330.22;4837026;29;19916;-89
2020/12/26 05:48:46;;;;;;;;;;;;;;;9.83;57.84;102326.59;4836717;29;19972;-89
2020/12/26 05:51:21;;;;;;;;;;;;;;;9.33;58.69;102332.09;4836582;29;20359;-89
2020/12/26 05:53:47;;;;;;;;;;;;;;;9.81;58.10;102325.72;4836593;29;19973;-88
2020/12/26 05:56:16;;;;;;;;;;;;;;;9.58;59.24;102332.47;4836238;29;19932;-89
2020/12/26 05:58:41;;;;;;;;;;;;;;;9.71;58.31;102321.47;4836258;29;19916;-89
2020/12/26 06:01:07;;;;;;;;;;;;;;;9.30;59.35;102310.53;4836823;29;19963;-89
2020/12/26 06:03:35;;;;;;;;;;;;;;;9.31;58.76;102315.00;4836753;29;20039;-87
2020/12/26 06:06:03;;;;;;;;;;;;;;;10.00;57.56;102319.97;4836506;29;19924;-88
2020/12/26 06:08:31;;;;;;;;;;;;;;;9.79;58.45;102307.78;4836140;29;19916;-89
2020/12/26 06:11:01;;;;;;;;;;;;;;;9.14;60.17;102312.63;4836314;29;19916;-89
2020/12/26 06:13:27;;;;;;;;;;;;;;;9.47;59.31;102306.63;4836238;29;19916;-88
2020/12/26 06:15:56;;;;;;;;;;;;;;;10.25;57.27;102307.69;4836123;29;19921;-90
2020/12/26 06:18:23;;;;;;;;;;;;;;;9.49;58.96;102312.88;4836787;29;19941;-89
2020/12/26 06:20:50;;;;;;;;;;;;;;;9.39;58.90;102307.66;4836605;29;20010;-87
2020/12/26 06:23:19;;;;;;;;;;;;;;;9.26;59.92;102310.63;4836864;29;19921;-90
2020/12/26 06:25:46;;;;;;;;;;;;;;;9.84;58.11;102306.75;4833776;29;19920;-89
2020/12/26 06:28:19;;;;;;;;;;;;;;;9.10;60.03;102318.97;4836789;29;19969;-88
2020/12/26 06:30:47;;;;;;;;;;;;;;;9.46;58.84;102303.00;4856288;29;19912;-89
2020/12/26 06:33:13;;;;;;;;;;;;;;;9.04;60.41;102308.28;4862323;29;19955;-88
2020/12/26 06:35:43;;;;;;;;;;;;;;;9.52;58.79;102300.19;4852505;29;19924;-90
2020/12/26 06:38:13;;;;;;;;;;;;;;;8.48;61.70;102298.44;4836160;29;19916;-89
2020/12/26 06:40:49;;;;;;;;;;;;;;;9.05;60.89;102293.88;4851454;29;19923;-89
2020/12/26 06:43:34;;;;;;;;;;;;;;;8.95;60.40;102303.97;4839219;29;19927;-89
2020/12/26 06:46:00;;;;;;;;;;;;;;;9.94;57.81;102286.72;4837921;29;19916;-88
2020/12/26 06:48:35;;;;;;;;;;;;;;;9.52;58.90;102294.78;4842010;29;19955;-89
2020/12/26 06:51:20;;;;;;;;;;;;;;;9.04;59.49;102293.00;4842116;29;19917;-88
2020/12/26 06:53:45;;;;;;;;;;;;;;;9.00;60.02;102302.06;4836171;29;19920;-90
2020/12/26 06:56:31;;;;;;;;;;;;;;;9.54;58.55;102298.38;4836226;29;19969;-89
2020/12/26 06:58:56;;;;;;;;;;;;;;;9.29;58.78;102297.94;4835711;29;20279;-89
2020/12/26 07:01:23;;;;;;;;;;;;;;;9.69;58.01;102290.84;4835834;29;19941;-88
2020/12/26 07:04:11;;;;;;;;;;;;;;;9.59;58.46;102298.28;4836120;29;20382;-88
2020/12/26 07:06:37;;;;;;;;;;;;;;;9.44;58.28;102294.06;4835767;29;19916;-89
2020/12/26 07:09:04;;;;;;;;;;;;;;;9.08;59.99;102293.84;4835476;29;19917;-88
2020/12/26 07:11:41;;;;;;;;;;;;;;;9.54;58.85;102292.06;4835769;29;20378;-89
2020/12/26 07:14:07;;;;;;;;;;;;;;;9.38;59.11;102296.88;4850820;29;19916;-88
2020/12/26 07:16:42;;;;;;;;;;;;;;;9.61;58.66;102303.66;4835955;29;19924;-89
2020/12/26 07:19:21;;;;;;;;;;;;;;;9.54;58.96;102297.47;4836288;29;20080;-87
2020/12/26 07:21:48;;;;;;;;;;;;;;;9.44;60.06;102291.34;4836414;29;19917;-89
2020/12/26 07:24:20;;;;;;;;;;;;;;;9.54;60.09;102278.53;4836596;29;19920;-89
2020/12/26 07:26:45;;;;;;;;;;;;;;;9.44;60.37;102277.84;4836450;29;19927;-88
2020/12/26 07:29:21;;;;;;;;;;;;;;;9.49;60.62;102285.88;4835252;29;19916;-89
2020/12/26 07:31:47;;;;;;;;;;;;;;;9.23;61.32;102279.16;4836665;29;19930;-88
2020/12/26 07:34:31;;;;;;;;;;;;;;;9.37;60.94;102279.78;4837802;29;19967;-88
2020/12/26 07:36:58;;;;;;;;;;;;;;;9.23;61.14;102271.94;4835582;29;19952;-88
2020/12/26 07:39:24;;;;;;;;;;;;;;;9.36;60.55;102269.00;4829129;29;19923;-88
2020/12/26 07:41:55;;;;;;;;;;;;;;;9.32;60.47;102264.59;4827558;29;19916;-90
2020/12/26 07:44:25;;;;;;;;;;;;;;;10.16;58.33;102266.41;4835165;29;19916;-87
2020/12/26 07:46:52;;;;;;;;;;;;;;;9.34;60.27;102263.63;4845238;29;19916;-87
2020/12/26 07:49:17;;;;;;;;;;;;;;;9.13;61.60;102253.25;4844906;29;19916;-85
2020/12/26 07:51:42;;;;;;;;;;;;;;;8.92;62.42;102241.91;4844557;29;20438;-87
2020/12/26 07:54:15;;;;;;;;;;;;;;;9.16;61.57;102247.78;4845052;29;20465;-87
2020/12/26 07:56:40;;;;;;;;;;;;;;;8.49;63.18;102246.25;4861576;29;20390;-88
2020/12/26 07:59:05;;;;;;;;;;;;;;;8.36;63.48;102228.47;4844749;29;19936;-87
2020/12/26 08:01:30;;;;;;;;;;;;;;;8.81;63.23;102228.63;4845205;29;19923;-87
2020/12/26 08:04:00;;;;;;;;;;;;;;;8.52;63.59;102234.53;4845370;29;19956;-87
2020/12/26 08:06:26;;;;;;;;;;;;;;;8.87;62.71;102230.34;4863810;29;19972;-89
2020/12/26 08:08:53;;;;;;;;;;;;;;;8.61;63.40;102228.97;4848309;29;19916;-87
2020/12/26 08:11:22;;;;;;;;;;;;;;;8.92;62.82;102227.53;4849689;29;19916;-91
2020/12/26 08:14:00;;;;;;;;;;;;;;;9.25;61.46;102215.19;4849055;29;19916;-88
2020/12/26 08:16:25;;;;;;;;;;;;;;;8.71;62.59;102215.34;4865504;29;20332;-88
2020/12/26 08:18:50;;;;;;;;;;;;;;;8.39;64.23;102209.53;4866956;29;19984;-89
2020/12/26 08:21:22;;;;;;;;;;;;;;;8.64;63.18;102207.34;4867399;29;19960;-89
2020/12/26 08:23:57;;;;;;;;;;;;;;;8.51;63.52;102197.69;4864705;29;19920;-86
2020/12/26 08:26:23;;;;;;;;;;;;;;;8.74;62.92;102191.91;4864046;29;19916;-85
2020/12/26 08:28:49;;;;;;;;;;;;;;;9.36;61.31;102196.06;4847591;29;19976;-85
2020/12/26 08:31:18;;;;;;;;;;;;;;;8.57;63.42;102196.69;4846848;29;19924;-84
2020/12/26 08:33:48;;;;;;;;;;;;;;;8.85;62.12;102183.59;4863826;29;19919;-83
2020/12/26 08:36:22;;;;;;;;;;;;;;;8.83;62.84;102185.41;4847506;29;19919;-83
2020/12/26 08:38:57;;;;;;;;;;;;;;;9.21;61.50;102187.38;4848116;29;19920;-86
2020/12/26 08:41:26;;;;;;;;;;;;;;;9.48;61.11;102190.44;4845492;29;19920;-86
2020/12/26 08:43:52;;;;;;;;;;;;;;;9.32;61.19;102192.56;4853819;29;19916;-86
2020/12/26 08:46:18;;;;;;;;;;;;;;;8.91;61.38;102183.47;4847913;29;19923;-88
2020/12/26 08:48:45;;;;;;;;;;;;;;;8.99;61.19;102176.13;4847813;29;20371;-88
2020/12/26 08:51:16;;;;;;;;;;;;;;;9.30;60.68;102177.28;4848350;29;19916;-90
2020/12/26 08:53:43;;;;;;;;;;;;;;;9.05;61.61;102177.81;4846919;29;19926;-88
2020/12/26 08:56:08;;;;;;;;;;;;;;;9.05;61.29;102181.38;4840815;29;19968;-88
2020/12/26 08:58:36;;;;;;;;;;;;;;;8.96;61.74;102186.09;4840775;29;19920;-88
2020/12/26 09:01:02;;;;;;;;;;;;;;;8.89;61.73;102185.31;4831606;29;19931;-88
2020/12/26 09:03:31;;;;;;;;;;;;;;;9.38;60.35;102183.44;4864713;29;19986;-88
2020/12/26 09:06:00;;;;;;;;;;;;;;;8.69;61.98;102177.59;4845842;29;19920;-87
2020/12/26 09:08:35;;;;;;;;;;;;;;;8.82;61.85;102176.44;4860579;29;19915;-88
2020/12/26 09:11:05;;;;;;;;;;;;;;;8.71;61.98;102169.47;4861297;29;20044;-88
2020/12/26 09:13:32;;;;;;;;;;;;;;;9.35;60.58;102175.41;4859866;29;19952;-87
2020/12/26 09:16:05;;;;;;;;;;;;;;;8.91;60.82;102163.69;4843512;29;19958;-88
2020/12/26 09:18:36;;;;;;;;;;;;;;;9.25;59.46;102171.13;4843791;29;20003;-87
2020/12/26 09:21:01;;;;;;;;;;;;;;;9.35;60.00;102164.59;4844738;29;20433;-87
2020/12/26 09:23:34;;;;;;;;;;;;;;;9.15;59.80;102156.91;4860548;29;19916;-87
2020/12/26 09:26:16;;;;;;;;;;;;;;;9.65;58.74;102160.34;4860795;29;19923;-87
2020/12/26 09:28:45;;;;;;;;;;;;;;;9.12;60.45;102159.66;4847041;29;19916;-86
2020/12/26 09:31:11;;;;;;;;;;;;;;;8.99;61.14;102156.34;4863374;29;20018;-86
2020/12/26 09:33:36;;;;;;;;;;;;;;;9.22;60.15;102161.25;4846324;29;19959;-87
2020/12/26 09:36:02;;;;;;;;;;;;;;;8.95;60.92;102168.09;4846062;29;19920;-87
2020/12/26 09:38:28;;;;;;;;;;;;;;;9.09;60.59;102173.22;4846890;29;19959;-86
2020/12/26 09:40:53;;;;;;;;;;;;;;;9.16;60.32;102177.59;4846844;29;19971;-87
2020/12/26 09:43:18;;;;;;;;;;;;;;;8.96;61.52;102164.50;4846986;29;19975;-87
2020/12/26 09:45:43;;;;;;;;;;;;;;;8.31;63.00;102165.63;4846431;29;19916;-86
2020/12/26 09:48:08;;;;;;;;;;;;;;;8.89;61.29;102157.44;4846354;29;19916;-87
2020/12/26 09:50:34;;;;;;;;;;;;;;;8.11;63.33;102161.47;4862864;29;19916;-87
2020/12/26 09:52:59;;;;;;;;;;;;;;;8.70;61.21;102160.50;4862058;29;19920;-87
2020/12/26 09:55:24;;;;;;;;;;;;;;;8.71;61.32;102153.28;4846662;29;19972;-87
2020/12/26 09:57:49;;;;;;;;;;;;;;;8.83;60.88;102145.84;4846196;29;19916;-87
2020/12/26 10:00:14;;;;;;;;;;;;;;;8.64;60.77;102147.13;4862704;29;20278;-86
2020/12/26 10:02:40;;;;;;;;;;;;;;;8.87;61.08;102133.19;4845743;29;20371;-86
2020/12/26 10:05:05;;;;;;;;;;;;;;;9.22;60.68;102132.47;4845999;29;19927;-86
2020/12/26 10:07:31;;;;;;;;;;;;;;;8.84;61.32;102123.31;4862325;29;20517;-85
2020/12/26 10:09:56;;;;;;;;;;;;;;;9.00;61.41;102118.53;4845714;29;19920;-86
2020/12/26 10:12:21;;;;;;;;;;;;;;;9.43;60.43;102124.81;4846096;29;20407;-86
2020/12/26 10:14:46;;;;;;;;;;;;;;;9.63;60.09;102123.47;4845699;29;19916;-87
2020/12/26 10:17:12;;;;;;;;;;;;;;;9.62;58.78;102132.47;4845748;29;19923;-87
2020/12/26 10:19:37;;;;;;;;;;;;;;;9.15;60.77;102138.91;4846233;29;19916;-87
2020/12/26 10:22:02;;;;;;;;;;;;;;;9.00;61.21;102123.03;4861465;29;19916;-87
2020/12/26 10:24:27;;;;;;;;;;;;;;;9.13;60.89;102113.75;4863037;29;19923;-86
2020/12/26 10:26:53;;;;;;;;;;;;;;;8.99;60.92;102118.56;4845522;29;19945;-86
2020/12/26 10:29:18;;;;;;;;;;;;;;;8.86;61.70;102118.81;4847337;29;19920;-84
2020/12/26 10:31:43;;;;;;;;;;;;;;;9.00;61.09;102112.25;4853141;29;19923;-87
2020/12/26 10:34:08;;;;;;;;;;;;;;;8.72;62.32;102098.41;4845779;29;19924;-85
2020/12/26 10:36:33;;;;;;;;;;;;;;;8.98;60.87;102103.25;4845325;29;19916;-87
2020/12/26 10:38:58;;;;;;;;;;;;;;;9.09;60.90;102101.25;4845145;29;19963;-87
2020/12/26 10:41:24;;;;;;;;;;;;;;;8.76;61.27;102111.81;4861685;29;19971;-86
2020/12/26 10:43:49;;;;;;;;;;;;;;;9.29;60.16;102103.50;4845809;29;19916;-86
2020/12/26 10:46:14;;;;;;;;;;;;;;;8.78;61.50;102099.16;4846049;29;20024;-86
2020/12/26 10:48:40;;;;;;;;;;;;;;;9.43;60.22;102091.50;4862476;29;19972;-87
2020/12/26 10:51:05;;;;;;;;;;;;;;;9.61;59.40;102096.47;4861450;29;20393;-87
2020/12/26 10:53:30;;;;;;;;;;;;;;;9.68;59.62;102091.84;4860031;29;19955;-87
2020/12/26 10:55:56;;;;;;;;;;;;;;;9.89;58.41;102082.31;4861537;29;19916;-87
2020/12/26 10:58:21;;;;;;;;;;;;;;;9.90;59.06;102063.34;4845125;29;19923;-87
2020/12/26 11:00:46;;;;;;;;;;;;;;;10.00;58.70;102058.59;4861937;29;19922;-86
2020/12/26 11:03:11;;;;;;;;;;;;;;;9.55;59.09;102062.38;4845561;29;19924;-87
2020/12/26 11:05:36;;;;;;;;;;;;;;;9.67;60.22;102049.53;4844970;29;19916;-86
2020/12/26 11:08:02;;;;;;;;;;;;;;;9.33;60.66;102058.41;4844882;29;19916;-86
2020/12/26 11:10:27;;;;;;;;;;;;;;;9.74;58.82;102052.03;4844936;29;19968;-86
2020/12/26 11:12:52;;;;;;;;;;;;;;;9.67;58.90;102047.69;4844755;29;19983;-86
2020/12/26 11:15:17;;;;;;;;;;;;;;;10.27;58.02;102038.03;4844761;29;20254;-87
2020/12/26 11:17:42;;;;;;;;;;;;;;;9.67;59.25;102036.00;4844765;29;20293;-87
2020/12/26 11:20:09;;;;;;;;;;;;;;;9.63;59.54;102020.78;4860433;29;20330;-86
2020/12/26 11:22:34;;;;;;;;;;;;;;;9.47;59.90;102015.78;4861542;29;20369;-86
2020/12/26 11:24:59;;;;;;;;;;;;;;;10.11;58.36;102012.34;4844840;29;19972;-87
2020/12/26 11:27:25;;;;;;;;;;;;;;;9.83;59.79;102013.06;4845461;29;19916;-87
2020/12/26 11:29:51;;;;;;;;;;;;;;;9.84;59.72;102012.13;4861204;29;19916;-87
2020/12/26 11:32:16;;;;;;;;;;;;;;;9.85;59.05;102000.41;4844891;29;19928;-87
2020/12/26 11:34:42;;;;;;;;;;;;;;;10.28;58.77;101992.94;4859808;29;19912;-88
2020/12/26 11:37:08;;;;;;;;;;;;;;;10.14;59.08;101979.81;4844545;29;19963;-87
2020/12/26 11:39:34;;;;;;;;;;;;;;;10.05;58.55;101975.53;4862570;29;19916;-87
2020/12/26 11:41:59;;;;;;;;;;;;;;;9.68;59.39;101964.84;4848529;29;19923;-87
2020/12/26 11:44:24;;;;;;;;;;;;;;;9.52;60.05;101957.09;4849858;29;19916;-87
2020/12/26 11:46:49;;;;;;;;;;;;;;;9.80;59.65;101945.59;4863657;29;19965;-87
2020/12/26 11:49:14;;;;;;;;;;;;;;;9.99;59.00;101947.78;4848513;29;20012;-87
2020/12/26 11:51:40;;;;;;;;;;;;;;;10.25;57.64;101933.53;4849017;29;20274;-87
2020/12/26 11:54:05;;;;;;;;;;;;;;;9.97;58.52;101923.50;4866056;29;20487;-88
2020/12/26 11:56:30;;;;;;;;;;;;;;;9.66;59.26;101918.03;4848792;29;19923;-88
2020/12/26 11:58:55;;;;;;;;;;;;;;;10.09;58.49;101909.63;4866277;29;19927;-87
2020/12/26 12:01:23;;;;;;;;;;;;;;;9.81;59.07;101906.81;4849762;29;19923;-88
2020/12/26 12:03:48;;;;;;;;;;;;;;;9.91;58.89;101897.53;4864980;29;20007;-87
2020/12/26 12:06:13;;;;;;;;;;;;;;;9.40;59.36;101893.50;4866477;29;20351;-86
2020/12/26 12:08:42;;;;;;;;;;;;;;;9.40;60.18;101890.81;4866551;29;19916;-88
2020/12/26 12:11:08;;;;;;;;;;;;;;;9.19;60.70;101889.53;4849822;29;19932;-87
2020/12/26 12:13:33;;;;;;;;;;;;;;;9.36;59.92;101877.38;4865581;29;19960;-87
2020/12/26 12:15:58;;;;;;;;;;;;;;;9.43;60.66;101879.00;4864143;29;19916;-86
2020/12/26 12:18:23;;;;;;;;;;;;;;;9.75;58.93;101882.66;4864280;29;19924;-86
2020/12/26 12:20:49;;;;;;;;;;;;;;;9.46;59.82;101875.34;4862832;29;19916;-86
2020/12/26 12:23:14;;;;;;;;;;;;;;;9.40;60.15;101874.59;4848004;29;19916;-87
2020/12/26 12:25:40;;;;;;;;;;;;;;;8.95;61.29;101871.22;4847873;29;19916;-86
2020/12/26 12:28:05;;;;;;;;;;;;;;;9.14;60.46;101877.06;4864376;29;19916;-86
2020/12/26 12:30:30;;;;;;;;;;;;;;;9.02;61.03;101860.25;4847762;29;19916;-86
2020/12/26 12:32:55;;;;;;;;;;;;;;;8.82;62.16;101859.84;4847497;29;20033;-86
2020/12/26 12:35:21;;;;;;;;;;;;;;;9.15;61.17;101851.81;4847799;29;20007;-86
2020/12/26 12:37:47;;;;;;;;;;;;;;;9.34;60.16;101852.25;4847898;29;19949;-86
2020/12/26 12:40:12;;;;;;;;;;;;;;;9.46;61.15;101849.22;4832112;29;19955;-86
2020/12/26 12:42:37;;;;;;;;;;;;;;;8.83;62.90;101849.03;4847516;29;20355;-86
2020/12/26 12:45:03;;;;;;;;;;;;;;;8.72;63.05;101832.19;4847793;29;20371;-86